Time;durP1;ratioP1;P1;durP2;ratioP2;P2;SDS_P1;SDS_P2;PMS_P1;PMS_P2;Temp;Humidity;BMP_temperature;BMP_pressure;BME280_temperature;BME280_humidity;BME280_pressure;Samples;Min_cycle;Max_cycle;Signal;HPM_P1;HPM_P2
2023/09/09 00:00:51;;;;;;;3.07;1.10;;;14.90;38.70;;;;;;4936597;29;20175;-70
2023/09/09 00:03:20;;;;;;;1.60;1.20;;;14.90;38.40;;;;;;4931425;29;20277;-71
2023/09/09 00:05:47;;;;;;;1.27;1.17;;;14.90;38.60;;;;;;4935861;29;20187;-73
2023/09/09 00:08:16;;;;;;;3.03;1.47;;;15.00;37.40;;;;;;4930570;29;21035;-72
2023/09/09 00:10:43;;;;;;;1.70;1.13;;;15.20;36.90;;;;;;4930907;29;20188;-70
2023/09/09 00:13:11;;;;;;;3.87;1.20;;;15.30;36.00;;;;;;4934425;29;20211;-74
2023/09/09 00:15:39;;;;;;;1.67;1.30;;;15.30;35.70;;;;;;4934599;29;20180;-73
2023/09/09 00:18:06;;;;;;;1.87;1.30;;;15.30;35.80;;;;;;4933517;29;20246;-71
2023/09/09 00:20:38;;;;;;;4.67;1.30;;;15.30;36.30;;;;;;4928495;29;20184;-72
2023/09/09 00:23:09;;;;;;;5.23;1.53;;;15.40;35.60;;;;;;4931945;29;20199;-72
2023/09/09 00:25:37;;;;;;;2.23;1.00;;;15.60;36.10;;;;;;4932573;29;20715;-72
2023/09/09 00:28:06;;;;;;;2.50;1.10;;;15.70;35.30;;;;;;4934933;29;20228;-74
2023/09/09 00:30:33;;;;;;;1.63;1.27;;;16.00;35.00;;;;;;4932632;29;20639;-72
2023/09/09 00:33:01;;;;;;;3.47;1.10;;;16.30;33.00;;;;;;4934680;29;20188;-70
2023/09/09 00:35:29;;;;;;;3.83;1.20;;;16.20;31.60;;;;;;4934680;29;20236;-74
2023/09/09 00:37:57;;;;;;;2.07;0.90;;;16.20;31.30;;;;;;4938969;29;20192;-71
2023/09/09 00:40:24;;;;;;;2.83;1.30;;;16.00;30.60;;;;;;4930204;29;20272;-69
2023/09/09 00:42:51;;;;;;;3.07;1.50;;;16.00;31.40;;;;;;4935055;29;20196;-72
2023/09/09 00:45:19;;;;;;;1.73;0.97;;;16.10;30.70;;;;;;4935531;29;20190;-73
2023/09/09 00:47:47;;;;;;;2.17;1.17;;;16.20;30.90;;;;;;4930487;29;20219;-76
2023/09/09 00:50:14;;;;;;;1.07;0.90;;;16.20;30.30;;;;;;4934179;29;20194;-71
2023/09/09 00:52:43;;;;;;;1.40;0.93;;;16.20;30.50;;;;;;4933447;29;20184;-72
2023/09/09 00:55:12;;;;;;;2.60;1.20;;;16.40;31.30;;;;;;4935434;29;20187;-72
2023/09/09 00:57:39;;;;;;;1.97;1.13;;;16.50;30.80;;;;;;4934433;29;20701;-71
2023/09/09 01:00:10;;;;;;;1.47;0.97;;;16.60;31.00;;;;;;4933771;29;20663;-71
2023/09/09 01:02:38;;;;;;;2.10;1.30;;;16.50;31.00;;;;;;4931753;29;20647;-72
2023/09/09 01:05:07;;;;;;;2.53;1.10;;;16.60;31.00;;;;;;4934216;29;20195;-74
2023/09/09 01:07:44;;;;;;;1.63;1.20;;;16.70;30.90;;;;;;4935480;29;20623;-73
2023/09/09 01:10:13;;;;;;;2.27;1.10;;;16.70;30.60;;;;;;4934118;29;20249;-73
2023/09/09 01:12:43;;;;;;;3.60;1.30;;;16.70;31.50;;;;;;4933867;29;20212;-74
2023/09/09 01:15:11;;;;;;;3.17;1.30;;;16.70;31.10;;;;;;4929948;29;20807;-74
2023/09/09 01:17:40;;;;;;;1.57;1.13;;;16.90;31.10;;;;;;4933597;29;20566;-71
2023/09/09 01:20:14;;;;;;;2.07;1.10;;;17.00;30.80;;;;;;4926201;29;20580;-73
2023/09/09 01:22:48;;;;;;;3.23;1.30;;;17.30;30.30;;;;;;4932427;29;20287;-73
2023/09/09 01:25:16;;;;;;;3.50;1.33;;;17.40;29.40;;;;;;4932431;29;20199;-71
2023/09/09 01:27:44;;;;;;;2.53;1.00;;;17.30;30.00;;;;;;4933956;29;20278;-73
2023/09/09 01:30:11;;;;;;;6.57;1.20;;;17.50;29.80;;;;;;4935339;29;20281;-73
2023/09/09 01:32:39;;;;;;;5.33;1.30;;;17.40;30.20;;;;;;4935176;29;20188;-73
2023/09/09 01:35:07;;;;;;;5.40;1.30;;;17.70;30.40;;;;;;4937604;29;20272;-74
2023/09/09 01:37:35;;;;;;;1.93;1.20;;;17.80;29.20;;;;;;4938302;29;20865;-77
2023/09/09 01:40:12;;;;;;;1.90;1.00;;;17.80;28.90;;;;;;4933250;29;20650;-71
2023/09/09 01:42:41;;;;;;;2.57;1.10;;;17.90;28.30;;;;;;4932147;29;20299;-72
2023/09/09 01:45:08;;;;;;;3.77;1.30;;;18.20;29.30;;;;;;4930724;29;20208;-72
2023/09/09 01:47:36;;;;;;;1.87;0.90;;;18.40;28.00;;;;;;4932793;29;20222;-74
2023/09/09 01:50:03;;;;;;;3.03;1.23;;;18.30;26.60;;;;;;4932841;29;20210;-74
2023/09/09 01:52:31;;;;;;;3.93;1.40;;;18.10;26.90;;;;;;4923109;29;20187;-75
2023/09/09 01:54:58;;;;;;;2.43;1.03;;;18.20;27.20;;;;;;4930445;29;20215;-73
2023/09/09 01:57:26;;;;;;;2.10;1.10;;;18.10;26.60;;;;;;4932920;29;20275;-72
2023/09/09 01:59:54;;;;;;;2.93;1.27;;;18.30;27.50;;;;;;4933585;29;20192;-75
2023/09/09 02:02:22;;;;;;;4.33;1.40;;;18.80;26.80;;;;;;4932258;29;20266;-73
2023/09/09 02:04:49;;;;;;;3.27;1.37;;;18.50;26.70;;;;;;4929189;29;20279;-73
2023/09/09 02:07:17;;;;;;;5.87;1.50;;;18.50;27.20;;;;;;4934572;29;20298;-73
2023/09/09 02:09:45;;;;;;;2.90;1.10;;;18.70;27.20;;;;;;4933862;29;20203;-73
2023/09/09 02:12:12;;;;;;;3.03;1.27;;;18.90;27.20;;;;;;4933753;29;20576;-72
2023/09/09 02:14:40;;;;;;;1.70;0.90;;;19.20;26.90;;;;;;4934447;29;20287;-74
2023/09/09 02:17:08;;;;;;;1.97;1.13;;;19.00;26.30;;;;;;4931908;29;20200;-71
2023/09/09 02:19:36;;;;;;;2.27;0.93;;;19.20;26.80;;;;;;4935242;29;20184;-76
2023/09/09 02:22:04;;;;;;;3.07;1.07;;;19.30;25.80;;;;;;4933187;29;20195;-75
2023/09/09 02:24:32;;;;;;;1.47;0.90;;;19.60;26.20;;;;;;4934679;29;20198;-71
2023/09/09 02:26:59;;;;;;;4.17;1.30;;;19.70;25.60;;;;;;4933841;29;20290;-74
2023/09/09 02:29:27;;;;;;;2.20;1.17;;;20.10;25.90;;;;;;4934557;29;20205;-72
2023/09/09 02:31:54;;;;;;;2.03;1.17;;;20.30;24.50;;;;;;4933972;29;20177;-74
2023/09/09 02:34:21;;;;;;;2.53;1.13;;;20.30;25.10;;;;;;4934007;29;20254;-73
2023/09/09 02:37:18;;;;;;;3.07;1.00;;;20.40;24.70;;;;;;4933395;29;20302;-68
2023/09/09 02:39:50;;;;;;;2.47;1.30;;;20.20;23.90;;;;;;4933065;29;20215;-75
2023/09/09 02:42:19;;;;;;;1.27;0.80;;;20.50;24.60;;;;;;4933819;29;20626;-73
2023/09/09 02:44:51;;;;;;;2.80;1.10;;;20.90;23.70;;;;;;4916937;29;20175;-74
2023/09/09 02:47:19;;;;;;;3.00;1.17;;;21.10;23.70;;;;;;4934345;29;20211;-72
2023/09/09 02:49:46;;;;;;;3.00;1.07;;;21.00;24.50;;;;;;4933501;29;20278;-72
2023/09/09 02:52:13;;;;;;;3.20;1.10;;;21.30;24.10;;;;;;4933657;29;20267;-73
2023/09/09 02:54:41;;;;;;;3.53;1.33;;;21.40;24.50;;;;;;4934080;29;20211;-71
2023/09/09 02:57:09;;;;;;;1.40;1.00;;;21.20;23.60;;;;;;4933669;29;20187;-73
2023/09/09 02:59:37;;;;;;;2.43;0.73;;;21.20;24.20;;;;;;4933262;29;20275;-74
2023/09/09 03:02:05;;;;;;;2.90;1.23;;;21.80;23.50;;;;;;4933080;29;20184;-73
2023/09/09 03:04:32;;;;;;;1.30;0.80;;;22.10;23.20;;;;;;4916616;29;20192;-73
2023/09/09 03:07:00;;;;;;;2.27;0.90;;;21.60;22.90;;;;;;4933026;29;20208;-72
2023/09/09 03:09:29;;;;;;;5.73;1.17;;;21.60;22.80;;;;;;4933610;29;20191;-75
2023/09/09 03:11:57;;;;;;;2.37;1.07;;;21.80;22.20;;;;;;4933738;29;20263;-74
2023/09/09 03:14:24;;;;;;;5.17;1.00;;;21.80;21.80;;;;;;4933229;29;20200;-72
2023/09/09 03:16:52;;;;;;;2.60;1.00;;;21.30;22.70;;;;;;4937061;29;20180;-74
2023/09/09 03:19:19;;;;;;;3.13;1.37;;;22.10;23.60;;;;;;4937072;29;20662;-73
2023/09/09 03:21:47;;;;;;;1.73;0.87;;;22.30;23.50;;;;;;4937455;29;20180;-74
2023/09/09 03:24:18;;;;;;;4.13;1.20;;;22.40;23.20;;;;;;4937116;29;20187;-74
2023/09/09 03:26:45;;;;;;;3.63;1.63;;;21.70;23.80;;;;;;4936632;29;20184;-72
2023/09/09 03:29:12;;;;;;;3.43;1.07;;;22.50;24.30;;;;;;4938068;29;20196;-72
2023/09/09 03:31:40;;;;;;;3.10;1.20;;;22.70;23.40;;;;;;4938088;29;20191;-71
2023/09/09 03:34:07;;;;;;;2.37;1.00;;;22.70;23.80;;;;;;4937744;29;20673;-73
2023/09/09 03:36:34;;;;;;;4.97;1.03;;;22.30;24.80;;;;;;4937763;29;20206;-74
2023/09/09 03:39:03;;;;;;;1.77;0.80;;;23.00;25.50;;;;;;4939052;29;20274;-73
2023/09/09 03:41:34;;;;;;;4.50;1.17;;;23.10;25.70;;;;;;4938208;29;20235;-73
2023/09/09 03:44:01;;;;;;;2.60;1.20;;;23.10;24.50;;;;;;4935300;29;20270;-74
2023/09/09 03:46:31;;;;;;;3.87;1.30;;;23.90;24.80;;;;;;4937534;29;20212;-73
2023/09/09 03:48:59;;;;;;;2.80;0.90;;;22.90;25.90;;;;;;4936985;29;20234;-73
2023/09/09 03:51:26;;;;;;;3.07;1.00;;;22.80;26.10;;;;;;4936537;29;20296;-71
2023/09/09 03:53:54;;;;;;;3.37;1.10;;;23.10;25.80;;;;;;4937012;29;20624;-72
2023/09/09 03:56:24;;;;;;;3.67;1.20;;;23.50;25.60;;;;;;4936732;29;20192;-70
2023/09/09 03:58:51;;;;;;;2.67;1.00;;;23.70;25.40;;;;;;4937900;29;20224;-73
2023/09/09 04:01:19;;;;;;;1.57;0.93;;;23.80;25.70;;;;;;4936615;29;20226;-73
2023/09/09 04:03:46;;;;;;;2.57;1.00;;;24.00;25.90;;;;;;4936705;29;20188;-75
2023/09/09 04:06:16;;;;;;;2.60;1.27;;;23.80;25.40;;;;;;4934338;29;21003;-73
2023/09/09 04:08:45;;;;;;;6.20;1.47;;;23.90;26.00;;;;;;4930359;29;20224;-71
2023/09/09 04:11:12;;;;;;;3.17;1.10;;;23.00;27.00;;;;;;4936148;29;20274;-74
2023/09/09 04:13:40;;;;;;;3.83;0.97;;;23.00;27.80;;;;;;4934770;29;20215;-73
2023/09/09 04:16:07;;;;;;;3.10;1.10;;;23.30;26.90;;;;;;4931228;29;20184;-73
2023/09/09 04:18:35;;;;;;;2.67;0.80;;;23.40;26.90;;;;;;4935823;29;20191;-71
2023/09/09 04:21:02;;;;;;;2.30;0.90;;;23.70;26.50;;;;;;4937839;29;20286;-72
2023/09/09 04:23:29;;;;;;;4.83;1.07;;;24.30;26.20;;;;;;4934917;29;20191;-73
2023/09/09 04:25:57;;;;;;;3.73;0.90;;;24.30;26.50;;;;;;4930183;29;20267;-74
2023/09/09 04:28:28;;;;;;;2.90;1.00;;;24.00;25.70;;;;;;4917318;29;20310;-73
2023/09/09 04:30:56;;;;;;;6.73;1.00;;;23.30;26.70;;;;;;4933136;29;20246;-71
2023/09/09 04:33:23;;;;;;;1.83;1.00;;;23.40;26.30;;;;;;4917978;29;20179;-73
2023/09/09 04:35:50;;;;;;;2.63;0.90;;;23.00;27.30;;;;;;4932928;29;20700;-73
2023/09/09 04:38:19;;;;;;;2.67;1.00;;;23.20;27.40;;;;;;4935633;29;20184;-72
2023/09/09 04:40:46;;;;;;;2.77;1.07;;;23.40;27.00;;;;;;4934666;29;20661;-73
2023/09/09 04:43:14;;;;;;;2.63;1.03;;;23.30;26.60;;;;;;4934528;29;20276;-73
2023/09/09 04:45:42;;;;;;;5.53;0.97;;;22.70;27.10;;;;;;4934916;29;20180;-73
2023/09/09 04:48:10;;;;;;;2.70;1.27;;;23.50;27.00;;;;;;4933665;29;20271;-73
2023/09/09 04:50:37;;;;;;;3.40;0.90;;;24.00;26.30;;;;;;4931933;29;20195;-71
2023/09/09 04:53:05;;;;;;;2.87;1.07;;;23.90;27.20;;;;;;4935243;29;20562;-70
2023/09/09 04:55:33;;;;;;;2.90;0.87;;;23.50;27.30;;;;;;4932844;29;20215;-73
2023/09/09 04:58:00;;;;;;;2.60;0.93;;;23.40;27.20;;;;;;4934521;29;20615;-73
2023/09/09 05:00:27;;;;;;;2.73;0.80;;;23.50;27.20;;;;;;4933609;29;20275;-74
2023/09/09 05:02:54;;;;;;;4.27;1.17;;;23.80;27.00;;;;;;4932658;29;20192;-73
2023/09/09 05:05:22;;;;;;;5.47;3.20;;;23.50;27.10;;;;;;4936169;29;20192;-74
2023/09/09 05:07:49;;;;;;;1.93;0.87;;;23.20;28.50;;;;;;4931145;29;20302;-73
2023/09/09 05:10:18;;;;;;;3.23;0.83;;;22.80;28.90;;;;;;4932781;29;20220;-73
2023/09/09 05:12:46;;;;;;;4.87;1.10;;;22.30;29.00;;;;;;4932497;29;20669;-71
2023/09/09 05:15:13;;;;;;;2.40;0.70;;;22.30;29.40;;;;;;4915077;29;20614;-72
2023/09/09 05:17:40;;;;;;;4.77;1.07;;;23.10;28.50;;;;;;4926579;29;20291;-73
2023/09/09 05:20:08;;;;;;;2.47;1.10;;;23.70;27.30;;;;;;4933325;29;20192;-74
2023/09/09 05:22:36;;;;;;;3.97;1.00;;;24.00;27.40;;;;;;4934972;29;20188;-73
2023/09/09 05:25:03;;;;;;;4.30;1.00;;;24.10;27.30;;;;;;4934583;29;20180;-70
2023/09/09 05:27:31;;;;;;;2.60;0.90;;;23.20;28.30;;;;;;4931864;29;20210;-73
2023/09/09 05:29:58;;;;;;;1.97;0.97;;;22.80;29.40;;;;;;4939005;29;20195;-73
2023/09/09 05:32:26;;;;;;;4.67;1.20;;;22.70;29.80;;;;;;4934984;29;21016;-75
2023/09/09 05:34:53;;;;;;;4.03;0.93;;;23.00;28.40;;;;;;4933140;29;20246;-68
2023/09/09 05:37:21;;;;;;;2.17;1.00;;;23.40;27.80;;;;;;4931025;29;20180;-73
2023/09/09 05:39:48;;;;;;;2.20;0.90;;;22.00;29.80;;;;;;4926036;29;20310;-72
2023/09/09 05:42:16;;;;;;;2.20;0.90;;;21.80;30.90;;;;;;4927743;29;20658;-74
2023/09/09 05:44:43;;;;;;;3.03;1.20;;;21.40;31.40;;;;;;4932089;29;20188;-73
2023/09/09 05:47:11;;;;;;;2.83;0.83;;;22.70;28.80;;;;;;4933349;29;20208;-74
2023/09/09 05:49:38;;;;;;;7.43;1.33;;;23.10;28.00;;;;;;4930073;29;20593;-72
2023/09/09 05:52:06;;;;;;;2.90;1.20;;;23.20;28.30;;;;;;4934396;29;20301;-74
2023/09/09 05:54:34;;;;;;;4.77;1.07;;;23.00;28.30;;;;;;4933783;29;20187;-71
2023/09/09 05:57:01;;;;;;;2.97;1.30;;;22.50;28.70;;;;;;4933255;29;20195;-73
2023/09/09 05:59:29;;;;;;;4.13;0.90;;;22.00;29.10;;;;;;4934805;29;20196;-72
2023/09/09 06:01:56;;;;;;;4.80;1.80;;;21.90;29.90;;;;;;4934002;29;20221;-72
2023/09/09 06:04:23;;;;;;;2.93;1.20;;;21.70;30.10;;;;;;4932764;29;20194;-73
2023/09/09 06:06:51;;;;;;;5.27;1.20;;;22.20;29.30;;;;;;4934290;29;20188;-73
2023/09/09 06:09:18;;;;;;;3.07;1.17;;;22.80;28.70;;;;;;4934763;29;20242;-71
2023/09/09 06:11:46;;;;;;;3.23;0.90;;;23.40;28.40;;;;;;4932386;29;20191;-73
2023/09/09 06:14:13;;;;;;;3.40;1.23;;;23.20;27.70;;;;;;4934644;29;20618;-73
2023/09/09 06:16:41;;;;;;;3.60;1.23;;;23.60;27.20;;;;;;4933524;29;20731;-72
2023/09/09 06:19:08;;;;;;;2.77;1.00;;;23.50;27.80;;;;;;4932726;29;20191;-71
2023/09/09 06:21:35;;;;;;;2.37;1.10;;;22.30;29.10;;;;;;4934213;29;20559;-71
2023/09/09 06:24:03;;;;;;;2.10;1.00;;;22.30;29.80;;;;;;4933450;29;20184;-72
2023/09/09 06:26:33;;;;;;;3.97;1.00;;;22.30;30.00;;;;;;4933372;29;20180;-71
2023/09/09 06:29:01;;;;;;;3.23;1.10;;;21.60;31.20;;;;;;4933434;29;20215;-71
2023/09/09 06:31:29;;;;;;;2.63;1.43;;;20.50;33.00;;;;;;4933770;29;20192;-72
2023/09/09 06:33:56;;;;;;;1.90;0.90;;;20.60;32.90;;;;;;4933415;29;20516;-72
2023/09/09 06:36:24;;;;;;;4.03;1.27;;;20.50;32.90;;;;;;4933442;29;20592;-73
2023/09/09 06:38:55;;;;;;;3.60;1.40;;;21.20;32.30;;;;;;4934301;29;20665;-73
2023/09/09 06:41:22;;;;;;;3.43;1.20;;;20.60;32.10;;;;;;4926519;29;20255;-73
2023/09/09 06:43:49;;;;;;;2.63;1.17;;;20.80;32.00;;;;;;4929718;29;20317;-72
2023/09/09 06:46:18;;;;;;;3.37;1.47;;;20.30;31.90;;;;;;4932552;29;20195;-72
2023/09/09 06:48:45;;;;;;;5.10;1.30;;;20.70;32.00;;;;;;4935003;29;20224;-73
2023/09/09 06:51:12;;;;;;;3.43;1.40;;;20.80;31.10;;;;;;4918784;29;20670;-73
2023/09/09 06:53:40;;;;;;;3.33;1.40;;;21.30;30.50;;;;;;4933832;29;20191;-72
2023/09/09 06:56:08;;;;;;;4.17;1.50;;;21.80;29.80;;;;;;4931023;29;20184;-73
2023/09/09 06:58:35;;;;;;;3.67;1.30;;;22.00;29.30;;;;;;4931594;29;20183;-72
2023/09/09 07:01:02;;;;;;;3.07;1.00;;;21.90;29.10;;;;;;4933386;29;20180;-73
2023/09/09 07:03:30;;;;;;;6.43;1.27;;;21.60;29.80;;;;;;4932266;29;20682;-73
2023/09/09 07:06:00;;;;;;;3.53;0.87;;;21.20;30.40;;;;;;4934694;29;20576;-74
2023/09/09 07:08:29;;;;;;;2.63;1.10;;;20.80;31.40;;;;;;4933504;29;20223;-73
2023/09/09 07:10:56;;;;;;;4.13;1.00;;;21.00;31.00;;;;;;4934079;29;20184;-74
2023/09/09 07:13:24;;;;;;;2.50;1.30;;;20.50;31.70;;;;;;4932267;29;20251;-73
2023/09/09 07:15:53;;;;;;;2.73;1.40;;;19.60;32.60;;;;;;4934097;29;20207;-74
2023/09/09 07:18:21;;;;;;;5.17;1.43;;;18.80;33.80;;;;;;4933229;29;20263;-72
2023/09/09 07:20:49;;;;;;;2.73;1.10;;;18.30;34.80;;;;;;4935774;29;20180;-74
2023/09/09 07:23:17;;;;;;;4.27;1.50;;;17.80;35.90;;;;;;4935965;29;20224;-73
2023/09/09 07:25:47;;;;;;;4.97;1.40;;;17.70;36.60;;;;;;4931999;29;20306;-71
2023/09/09 07:28:14;;;;;;;4.70;1.60;;;17.70;37.30;;;;;;4933440;29;20303;-73
2023/09/09 07:30:42;;;;;;;2.73;1.40;;;17.70;37.20;;;;;;4933015;29;20864;-72
2023/09/09 07:33:09;;;;;;;4.90;1.17;;;17.40;37.70;;;;;;4933725;29;20270;-74
2023/09/09 07:35:37;;;;;;;3.17;1.60;;;17.20;38.60;;;;;;4933674;29;20227;-74
2023/09/09 07:38:07;;;;;;;4.40;1.50;;;16.90;39.10;;;;;;4936572;29;20184;-74
2023/09/09 07:40:35;;;;;;;4.33;1.50;;;16.80;39.40;;;;;;4934854;29;20192;-74
2023/09/09 07:43:02;;;;;;;8.13;4.57;;;16.80;39.20;;;;;;4937671;29;20191;-72
2023/09/09 07:45:30;;;;;;;8.57;4.50;;;16.70;39.10;;;;;;4937797;29;20304;-74
2023/09/09 07:47:58;;;;;;;3.40;1.77;;;16.30;39.60;;;;;;4936699;29;20223;-72
2023/09/09 07:50:26;;;;;;;5.37;1.60;;;16.30;39.50;;;;;;4935629;29;20205;-73
2023/09/09 07:52:53;;;;;;;4.13;1.53;;;16.30;39.90;;;;;;4936754;29;20678;-74
2023/09/09 07:55:20;;;;;;;3.47;1.70;;;16.20;39.80;;;;;;4931982;29;20284;-73
2023/09/09 07:57:48;;;;;;;2.97;1.43;;;16.10;40.30;;;;;;4934274;29;20193;-73
2023/09/09 08:00:15;;;;;;;5.00;1.50;;;15.90;40.20;;;;;;4934687;29;20282;-73
2023/09/09 08:02:43;;;;;;;6.83;3.87;;;15.90;40.60;;;;;;4932004;29;20270;-73
2023/09/09 08:05:10;;;;;;;5.77;2.60;;;15.80;41.10;;;;;;4933582;29;20187;-74
2023/09/09 08:07:37;;;;;;;3.23;1.50;;;15.80;41.60;;;;;;4934635;29;20567;-75
2023/09/09 08:10:08;;;;;;;2.13;1.20;;;15.80;41.30;;;;;;4930309;29;20283;-73
2023/09/09 08:12:36;;;;;;;3.57;1.50;;;15.80;41.60;;;;;;4933926;29;20203;-73
2023/09/09 08:15:10;;;;;;;4.17;1.70;;;15.70;42.40;;;;;;4936111;29;20200;-74
2023/09/09 08:17:38;;;;;;;10.97;3.83;;;15.70;42.20;;;;;;4933133;29;20218;-73
2023/09/09 08:20:07;;;;;;;9.23;4.03;;;15.60;43.20;;;;;;4932685;29;20212;-75
2023/09/09 08:22:35;;;;;;;3.57;2.20;;;15.70;42.60;;;;;;4930926;29;20544;-73
2023/09/09 08:25:03;;;;;;;3.83;1.47;;;15.70;42.40;;;;;;4932438;29;20240;-74
2023/09/09 08:27:30;;;;;;;3.67;1.77;;;15.60;42.60;;;;;;4931359;29;20748;-74
2023/09/09 08:29:57;;;;;;;3.30;1.80;;;15.40;43.10;;;;;;4931754;29;20195;-74
2023/09/09 08:32:25;;;;;;;3.90;1.70;;;15.40;43.70;;;;;;4932996;29;20669;-72
2023/09/09 08:34:56;;;;;;;4.40;1.90;;;15.30;43.60;;;;;;4932043;29;20251;-74
2023/09/09 08:37:23;;;;;;;4.23;1.83;;;15.20;43.90;;;;;;4933819;29;20211;-73
2023/09/09 08:39:54;;;;;;;7.67;1.77;;;15.20;44.10;;;;;;4935308;29;20210;-74
2023/09/09 08:43:00;;;;;;;6.17;1.90;;;15.20;43.60;;;;;;4933292;29;20190;-75
2023/09/09 08:45:42;;;;;;;6.30;2.30;;;15.10;44.30;;;;;;4932747;29;20239;-75
2023/09/09 08:48:13;;;;;;;5.47;2.60;;;15.00;44.10;;;;;;4934866;29;20216;-74
2023/09/09 08:50:41;;;;;;;3.43;2.40;;;14.90;44.30;;;;;;4932256;29;20715;-74
2023/09/09 08:53:13;;;;;;;3.83;2.33;;;15.00;45.30;;;;;;4934034;29;20192;-74
2023/09/09 08:55:41;;;;;;;6.93;2.30;;;15.00;44.70;;;;;;4929626;29;20188;-73
2023/09/09 08:58:09;;;;;;;3.37;2.00;;;15.00;44.50;;;;;;4932412;29;20601;-73
2023/09/09 09:00:39;;;;;;;6.47;2.60;;;14.90;44.80;;;;;;4934805;29;20592;-74
2023/09/09 09:03:06;;;;;;;6.33;2.40;;;14.80;44.80;;;;;;4932778;29;20665;-75
2023/09/09 09:05:36;;;;;;;3.30;2.17;;;14.80;44.80;;;;;;4932699;29;20187;-74
2023/09/09 09:08:04;;;;;;;8.10;2.77;;;14.80;45.10;;;;;;4934877;29;20227;-73
2023/09/09 09:10:33;;;;;;;7.77;3.50;;;14.70;45.90;;;;;;4930714;29;20274;-74
2023/09/09 09:13:00;;;;;;;9.50;4.40;;;14.70;47.40;;;;;;4934704;29;20203;-74
2023/09/09 09:15:31;;;;;;;13.23;7.60;;;14.60;47.90;;;;;;4933521;29;20194;-75
2023/09/09 09:18:03;;;;;;;16.20;9.23;;;14.60;48.30;;;;;;4934148;29;20216;-74
2023/09/09 09:20:33;;;;;;;17.00;7.97;;;14.50;48.00;;;;;;4930781;29;20199;-74
2023/09/09 09:23:02;;;;;;;16.20;7.70;;;14.50;48.60;;;;;;4930266;29;20188;-75
2023/09/09 09:25:37;;;;;;;13.33;7.73;;;14.60;48.70;;;;;;4908225;29;20647;-73
2023/09/09 09:28:05;;;;;;;15.60;8.67;;;14.60;48.30;;;;;;4934184;29;20471;-73
2023/09/09 09:30:33;;;;;;;13.97;7.00;;;14.40;49.50;;;;;;4931754;29;20591;-73
2023/09/09 09:33:01;;;;;;;11.63;5.80;;;14.30;48.70;;;;;;4932540;29;20184;-74
2023/09/09 09:35:30;;;;;;;9.67;4.77;;;14.30;48.00;;;;;;4933470;29;20236;-72
2023/09/09 09:38:17;;;;;;;10.23;4.67;;;14.30;47.60;;;;;;4931446;29;20552;-71
2023/09/09 09:40:45;;;;;;;9.33;4.30;;;14.30;47.30;;;;;;4932250;29;20230;-72
2023/09/09 09:43:23;;;;;;;11.03;4.20;;;14.20;46.70;;;;;;4930838;29;20188;-72
2023/09/09 09:45:50;;;;;;;9.00;3.30;;;14.20;45.80;;;;;;4931812;29;20200;-71
2023/09/09 09:48:28;;;;;;;7.53;3.27;;;14.20;45.20;;;;;;4934469;29;20227;-71
2023/09/09 09:50:56;;;;;;;8.83;3.27;;;14.20;43.40;;;;;;4933906;29;20180;-73
2023/09/09 09:53:23;;;;;;;6.93;2.93;;;14.20;43.50;;;;;;4924318;29;20223;-72
2023/09/09 09:55:52;;;;;;;4.27;2.50;;;14.00;43.30;;;;;;4933065;29;20594;-72
2023/09/09 09:58:23;;;;;;;6.80;2.50;;;14.00;43.20;;;;;;4928823;29;20243;-73
2023/09/09 10:00:53;;;;;;;8.33;2.90;;;14.00;42.90;;;;;;4932280;29;20637;-71
2023/09/09 10:03:24;;;;;;;7.17;2.53;;;14.00;42.50;;;;;;4917860;29;20215;-71
2023/09/09 10:05:54;;;;;;;5.30;2.27;;;13.90;42.60;;;;;;4930618;29;20552;-72
2023/09/09 10:08:35;;;;;;;6.57;2.60;;;13.90;42.40;;;;;;4930546;29;20266;-73
2023/09/09 10:11:15;;;;;;;7.57;3.10;;;13.90;42.80;;;;;;4932305;29;20212;-73
2023/09/09 10:14:05;;;;;;;5.00;2.70;;;13.80;43.10;;;;;;4934710;29;20200;-72
2023/09/09 10:16:32;;;;;;;7.23;3.67;;;13.80;43.30;;;;;;4934171;29;20239;-73
2023/09/09 10:19:02;;;;;;;6.07;3.00;;;13.80;43.40;;;;;;4931245;29;20199;-73
2023/09/09 10:21:32;;;;;;;5.13;2.40;;;13.70;44.20;;;;;;4926621;29;20188;-72
2023/09/09 10:24:02;;;;;;;6.47;2.90;;;13.60;43.00;;;;;;4933395;29;20192;-73
2023/09/09 10:26:30;;;;;;;6.47;3.00;;;13.60;43.10;;;;;;4933793;29;20760;-72
2023/09/09 10:29:01;;;;;;;4.53;2.67;;;13.50;43.10;;;;;;4933512;29;20224;-72
2023/09/09 10:31:29;;;;;;;6.87;2.53;;;13.50;42.70;;;;;;4927426;29;20662;-73
2023/09/09 10:33:57;;;;;;;6.13;2.40;;;13.40;43.20;;;;;;4931899;29;20192;-73
2023/09/09 10:36:33;;;;;;;9.50;3.20;;;13.40;43.90;;;;;;4931241;29;20919;-73
2023/09/09 10:39:00;;;;;;;6.73;2.77;;;13.30;43.80;;;;;;4933206;29;20283;-73
2023/09/09 10:41:29;;;;;;;8.50;3.07;;;13.20;43.80;;;;;;4935793;29;20266;-74
2023/09/09 10:43:56;;;;;;;4.57;2.80;;;13.10;43.70;;;;;;4933884;29;20190;-73
2023/09/09 10:46:39;;;;;;;7.13;3.30;;;13.00;44.00;;;;;;4929624;29;20226;-72
2023/09/09 10:49:07;;;;;;;4.67;2.27;;;13.00;44.20;;;;;;4933219;29;20271;-73
2023/09/09 10:52:00;;;;;;;9.90;2.63;;;13.00;44.30;;;;;;4933783;29;20196;-73
2023/09/09 10:54:28;;;;;;;7.03;2.27;;;13.00;44.30;;;;;;4932341;29;20689;-71
2023/09/09 10:57:02;;;;;;;8.57;2.67;;;12.90;44.50;;;;;;4933472;29;20262;-72
2023/09/09 10:59:32;;;;;;;5.73;2.73;;;12.90;44.50;;;;;;4931775;29;20196;-73
2023/09/09 11:02:18;;;;;;;5.00;2.40;;;12.90;45.00;;;;;;4932548;29;20689;-72
2023/09/09 11:05:10;;;;;;;5.10;2.47;;;12.80;44.90;;;;;;4931020;29;20239;-73
2023/09/09 11:07:42;;;;;;;7.90;2.70;;;12.80;45.00;;;;;;4933816;29;20255;-72
2023/09/09 11:10:16;;;;;;;6.83;2.40;;;12.70;45.40;;;;;;4934224;29;20557;-72
2023/09/09 11:12:58;;;;;;;4.37;2.70;;;12.70;45.60;;;;;;4933792;29;20191;-73
2023/09/09 11:15:26;;;;;;;5.37;2.70;;;12.70;45.90;;;;;;4930347;29;20548;-73
2023/09/09 11:17:53;;;;;;;6.50;2.60;;;12.50;45.80;;;;;;4939884;29;20522;-72
2023/09/09 11:20:21;;;;;;;10.83;2.83;;;12.50;46.30;;;;;;4915012;29;20191;-72
2023/09/09 11:22:49;;;;;;;6.13;2.27;;;12.50;46.40;;;;;;4931268;29;20223;-74
2023/09/09 11:25:17;;;;;;;6.80;2.63;;;12.50;46.10;;;;;;4930637;29;20276;-72
2023/09/09 11:27:45;;;;;;;6.33;3.10;;;12.40;46.40;;;;;;4931660;29;20247;-72
2023/09/09 11:30:13;;;;;;;7.63;2.80;;;12.30;46.20;;;;;;4931679;29;20729;-72
2023/09/09 11:32:40;;;;;;;5.63;2.40;;;12.30;46.40;;;;;;4930623;29;20666;-71
2023/09/09 11:35:11;;;;;;;5.17;2.53;;;12.40;46.10;;;;;;4933805;29;20331;-70
2023/09/09 11:37:39;;;;;;;6.20;2.23;;;12.40;46.30;;;;;;4933134;29;20195;-73
2023/09/09 11:40:08;;;;;;;5.67;2.60;;;12.40;46.10;;;;;;4933139;29;20187;-73
2023/09/09 11:42:49;;;;;;;4.13;2.43;;;12.30;46.00;;;;;;4933789;29;20188;-75
2023/09/09 11:45:20;;;;;;;4.67;2.30;;;12.30;46.00;;;;;;4922246;29;20221;-71
2023/09/09 11:47:48;;;;;;;8.47;2.40;;;12.30;45.90;;;;;;4935233;29;20215;-73
2023/09/09 11:50:16;;;;;;;4.90;2.20;;;12.30;46.20;;;;;;4943091;29;20200;-73
2023/09/09 11:52:43;;;;;;;5.63;2.30;;;12.30;46.60;;;;;;4938580;29;20193;-74
2023/09/09 11:55:17;;;;;;;3.33;1.70;;;12.20;46.90;;;;;;4941514;29;20196;-74
2023/09/09 11:57:57;;;;;;;4.90;2.17;;;12.20;46.60;;;;;;4940251;29;20673;-74
2023/09/09 12:00:24;;;;;;;3.80;2.20;;;12.20;47.20;;;;;;4935501;29;20219;-74
2023/09/09 12:02:52;;;;;;;5.20;2.33;;;12.10;47.50;;;;;;4939474;29;20192;-73
2023/09/09 12:05:20;;;;;;;4.77;2.50;;;12.00;47.40;;;;;;4935594;29;20199;-73
2023/09/09 12:07:48;;;;;;;3.03;2.17;;;12.00;48.40;;;;;;4934199;29;20212;-73
2023/09/09 12:10:15;;;;;;;4.53;2.40;;;11.90;48.20;;;;;;4937783;29;20573;-75
2023/09/09 12:12:45;;;;;;;4.03;2.20;;;11.80;48.20;;;;;;4939199;29;20188;-75
2023/09/09 12:15:14;;;;;;;6.77;2.40;;;11.80;48.70;;;;;;4937499;29;20207;-75
2023/09/09 12:17:41;;;;;;;3.37;2.27;;;11.70;48.90;;;;;;4937468;29;20527;-74
2023/09/09 12:20:09;;;;;;;6.50;2.47;;;11.70;49.40;;;;;;4935936;29;20282;-75
2023/09/09 12:22:47;;;;;;;5.90;2.57;;;11.70;49.40;;;;;;4935941;29;20190;-76
2023/09/09 12:25:32;;;;;;;4.47;2.30;;;11.70;49.60;;;;;;4935969;29;20303;-75
2023/09/09 12:27:59;;;;;;;5.13;2.53;;;11.70;49.80;;;;;;4934129;29;20279;-74
2023/09/09 12:30:40;;;;;;;7.60;2.67;;;11.60;49.80;;;;;;4931286;29;20188;-75
2023/09/09 12:33:16;;;;;;;4.53;2.20;;;11.70;50.50;;;;;;4933731;29;20214;-74
2023/09/09 12:35:49;;;;;;;6.20;2.17;;;11.70;50.20;;;;;;4936056;29;20702;-76
2023/09/09 12:38:17;;;;;;;4.07;2.47;;;11.70;50.40;;;;;;4935911;29;20199;-75
2023/09/09 12:41:05;;;;;;;3.90;2.40;;;11.70;50.40;;;;;;4935861;29;20720;-75
2023/09/09 12:43:32;;;;;;;5.47;2.63;;;11.60;50.10;;;;;;4936745;29;20180;-75
2023/09/09 12:46:08;;;;;;;4.13;2.43;;;11.60;50.60;;;;;;4934390;29;20181;-74
2023/09/09 12:49:01;;;;;;;5.40;2.40;;;11.50;50.80;;;;;;4933810;29;20220;-75
2023/09/09 12:51:35;;;;;;;6.80;2.47;;;11.40;50.00;;;;;;4935925;29;20769;-73
2023/09/09 12:54:02;;;;;;;6.83;2.40;;;11.30;50.40;;;;;;4935344;29;20188;-75
2023/09/09 12:56:31;;;;;;;7.30;2.63;;;11.40;50.30;;;;;;4936251;29;20283;-74